createdAt,value
2023-01-31T00:00:03.366Z,10.83
2023-01-31T00:02:32.726Z,11.70
2023-01-31T00:05:01.117Z,11.17
2023-01-31T00:07:29.466Z,10.67
2023-01-31T00:09:57.721Z,13.43
2023-01-31T00:12:26.030Z,11.63
2023-01-31T00:14:55.675Z,11.70
2023-01-31T00:17:23.952Z,11.33
2023-01-31T00:19:52.281Z,10.00
2023-01-31T00:22:20.526Z,14.10
2023-01-31T00:24:48.767Z,12.07
2023-01-31T00:27:17.009Z,11.87
2023-01-31T00:29:45.214Z,11.53
2023-01-31T00:32:14.949Z,10.93
2023-01-31T00:34:43.273Z,10.80
2023-01-31T00:37:11.484Z,10.97
2023-01-31T00:39:39.777Z,11.20
2023-01-31T00:42:10.374Z,11.50
2023-01-31T00:44:38.672Z,10.20
2023-01-31T00:47:06.948Z,9.63
2023-01-31T00:49:36.964Z,11.67
2023-01-31T00:52:05.376Z,10.10
2023-01-31T00:54:34.221Z,10.63
2023-01-31T00:57:05.197Z,13.67
2023-01-31T00:59:33.609Z,11.37
2023-01-31T01:02:01.942Z,11.40
2023-01-31T01:04:30.242Z,11.20
2023-01-31T01:06:59.884Z,9.77
2023-01-31T01:09:28.184Z,10.73
2023-01-31T01:11:56.449Z,10.60
2023-01-31T01:14:24.825Z,10.63
2023-01-31T01:16:53.846Z,11.43
2023-01-31T01:19:22.302Z,10.93
2023-01-31T01:21:50.762Z,11.03
2023-01-31T01:24:21.501Z,11.47
2023-01-31T01:26:49.925Z,11.87
2023-01-31T01:29:18.299Z,11.00
2023-01-31T01:31:46.814Z,10.87
2023-01-31T01:34:16.745Z,11.50
2023-01-31T01:36:47.774Z,10.50
2023-01-31T01:39:16.608Z,11.33
2023-01-31T01:41:47.181Z,10.77
2023-01-31T01:44:50.979Z,11.33
2023-01-31T01:47:29.310Z,12.37
2023-01-31T01:50:01.118Z,11.23
2023-01-31T01:52:31.236Z,11.17
2023-01-31T01:55:05.363Z,13.55
2023-01-31T01:57:38.980Z,11.73
2023-01-31T02:00:13.879Z,11.10
2023-01-31T02:02:43.982Z,11.63
2023-01-31T02:05:13.827Z,11.50
2023-01-31T02:07:42.807Z,10.60
2023-01-31T02:10:16.423Z,11.67
2023-01-31T02:12:47.333Z,11.73
2023-01-31T02:15:16.018Z,11.27
2023-01-31T02:17:44.482Z,11.27
2023-01-31T02:20:29.387Z,11.77
2023-01-31T02:23:21.235Z,12.03
2023-01-31T02:26:07.533Z,11.17
2023-01-31T02:29:13.079Z,11.23
2023-01-31T02:35:05.191Z,13.10
2023-01-31T02:37:39.043Z,12.33
2023-01-31T02:40:16.148Z,13.33
2023-01-31T02:42:55.407Z,12.33
2023-01-31T02:45:33.442Z,13.33
2023-01-31T02:48:15.659Z,12.60
2023-01-31T02:50:51.181Z,13.00
2023-01-31T02:53:25.528Z,13.43
2023-01-31T02:56:18.140Z,12.27
2023-01-31T02:58:56.042Z,12.97
2023-01-31T03:01:29.266Z,12.37
2023-01-31T03:04:04.441Z,13.60
2023-01-31T03:07:08.612Z,13.33
2023-01-31T03:09:41.070Z,11.90
2023-01-31T03:12:35.678Z,13.37
2023-01-31T03:15:25.544Z,13.23
2023-01-31T03:18:00.870Z,13.70
2023-01-31T03:20:36.481Z,12.83
2023-01-31T03:23:12.129Z,13.77
2023-01-31T03:25:41.454Z,12.53
2023-01-31T03:28:13.677Z,13.20
2023-01-31T03:30:46.673Z,13.27
2023-01-31T03:33:19.409Z,13.57
2023-01-31T03:35:53.590Z,14.33
2023-01-31T03:38:26.640Z,14.40
2023-01-31T03:40:59.892Z,14.37
2023-01-31T03:43:32.895Z,14.57
2023-01-31T03:46:07.215Z,13.63
2023-01-31T03:48:42.222Z,14.43
2023-01-31T03:51:15.526Z,13.53
2023-01-31T03:53:51.140Z,14.98
2023-01-31T03:56:23.140Z,14.23
2023-01-31T03:58:55.025Z,15.20
2023-01-31T04:01:27.331Z,13.83
2023-01-31T04:03:59.838Z,14.50
2023-01-31T04:06:28.515Z,16.85
2023-01-31T04:08:58.301Z,14.03
2023-01-31T04:11:28.407Z,14.67
2023-01-31T04:13:56.798Z,15.03
2023-01-31T04:16:25.070Z,15.17
2023-01-31T04:18:53.532Z,13.20
2023-01-31T04:21:21.832Z,12.43
2023-01-31T04:23:50.171Z,12.40
2023-01-31T04:26:19.905Z,12.07
2023-01-31T04:28:48.285Z,12.73
2023-01-31T04:31:16.670Z,12.23
2023-01-31T04:33:45.030Z,13.07
2023-01-31T04:36:13.353Z,13.83
2023-01-31T04:38:41.567Z,13.43
2023-01-31T04:41:10.060Z,12.47
2023-01-31T04:43:39.767Z,13.63
2023-01-31T04:46:08.231Z,13.20
2023-01-31T04:48:36.779Z,12.43
2023-01-31T04:51:05.267Z,13.83
2023-01-31T04:53:33.509Z,13.17
2023-01-31T04:56:01.821Z,13.30
2023-01-31T04:58:30.172Z,14.75
2023-01-31T05:00:59.977Z,12.03
2023-01-31T05:03:28.783Z,12.37
2023-01-31T05:05:57.054Z,13.10
2023-01-31T05:08:25.358Z,13.40
2023-01-31T05:10:59.208Z,13.27
2023-01-31T05:13:28.068Z,12.03
2023-01-31T05:15:58.123Z,12.37
2023-01-31T05:18:27.975Z,11.87
2023-01-31T05:20:56.207Z,11.97
2023-01-31T05:23:24.953Z,13.50
2023-01-31T05:25:53.231Z,12.30
2023-01-31T05:28:21.529Z,13.67
2023-01-31T05:30:49.863Z,13.73
2023-01-31T05:33:20.718Z,16.65
2023-01-31T05:35:50.645Z,14.97
2023-01-31T05:38:18.841Z,15.60
2023-01-31T05:40:47.361Z,14.53
2023-01-31T05:43:15.682Z,14.20
2023-01-31T05:45:44.875Z,14.10
2023-01-31T05:48:13.292Z,13.97
2023-01-31T05:50:41.601Z,14.23
2023-01-31T05:53:11.407Z,13.63
2023-01-31T05:55:39.702Z,12.87
2023-01-31T05:58:08.073Z,13.70
2023-01-31T06:00:36.426Z,14.17
2023-01-31T06:03:04.691Z,13.40
2023-01-31T06:05:33.910Z,13.97
2023-01-31T06:08:02.577Z,12.93
2023-01-31T06:10:32.232Z,12.63
2023-01-31T06:13:00.563Z,14.50
2023-01-31T06:15:28.829Z,13.10
2023-01-31T06:17:57.231Z,13.43
2023-01-31T06:20:26.015Z,11.50
2023-01-31T06:22:54.318Z,11.83
2023-01-31T06:25:22.852Z,14.70
2023-01-31T06:27:52.656Z,12.60
2023-01-31T06:30:21.267Z,12.63
2023-01-31T06:32:58.704Z,13.07
2023-01-31T06:35:27.066Z,12.00
2023-01-31T06:37:56.258Z,11.77
2023-01-31T06:40:24.563Z,12.83
2023-01-31T06:42:54.227Z,12.50
2023-01-31T06:45:22.943Z,13.30
2023-01-31T06:47:51.389Z,14.07
2023-01-31T06:50:20.066Z,14.47
2023-01-31T06:52:48.381Z,13.60
2023-01-31T06:55:16.926Z,14.70
2023-01-31T06:57:49.070Z,14.17
2023-01-31T07:00:19.887Z,13.73
2023-01-31T07:02:48.475Z,13.97
2023-01-31T07:05:17.009Z,13.13
2023-01-31T07:07:45.305Z,13.77
2023-01-31T07:10:14.350Z,13.50
2023-01-31T07:12:42.746Z,13.37
2023-01-31T07:15:12.835Z,14.13
2023-01-31T07:17:44.193Z,12.80
2023-01-31T07:20:13.565Z,13.77
2023-01-31T07:22:41.837Z,15.37
2023-01-31T07:25:10.864Z,14.07
2023-01-31T07:27:39.378Z,14.20
2023-01-31T07:30:08.811Z,14.63
2023-01-31T07:32:37.129Z,14.47
2023-01-31T07:35:07.845Z,13.77
2023-01-31T07:37:36.272Z,14.10
2023-01-31T07:40:05.981Z,13.27
2023-01-31T07:42:34.241Z,12.43
2023-01-31T07:45:13.166Z,11.97
2023-01-31T07:47:50.345Z,13.00
2023-01-31T07:50:20.685Z,13.98
2023-01-31T07:52:50.175Z,13.20
2023-01-31T07:55:18.805Z,12.17
2023-01-31T07:57:47.432Z,11.43
2023-01-31T08:00:30.916Z,10.60
2023-01-31T08:03:16.827Z,11.97
2023-01-31T08:05:48.935Z,11.50
2023-01-31T08:08:17.215Z,10.80
2023-01-31T08:10:47.348Z,11.60
2023-01-31T08:13:15.686Z,9.93
2023-01-31T08:15:44.024Z,10.70
2023-01-31T08:18:12.233Z,10.27
2023-01-31T08:20:41.544Z,10.77
2023-01-31T08:23:11.240Z,9.73
2023-01-31T08:25:39.435Z,9.37
2023-01-31T08:28:08.011Z,10.17
2023-01-31T08:44:55.152Z,8.97
2023-01-31T08:47:23.454Z,7.93
2023-01-31T08:49:51.735Z,10.23
2023-01-31T08:52:20.027Z,10.37
2023-01-31T08:54:48.279Z,11.30
2023-01-31T08:57:16.600Z,11.30
2023-01-31T08:59:44.858Z,11.07
2023-01-31T09:02:14.564Z,10.87
2023-01-31T09:04:42.840Z,10.17
2023-01-31T09:07:11.143Z,9.33
2023-01-31T09:09:39.595Z,11.27
2023-01-31T09:12:08.371Z,10.83
2023-01-31T09:14:36.638Z,10.40
2023-01-31T09:17:04.974Z,9.10
2023-01-31T09:19:34.791Z,9.93
2023-01-31T09:22:03.086Z,9.87
2023-01-31T09:24:31.373Z,9.60
2023-01-31T09:26:59.628Z,11.77
2023-01-31T09:29:28.664Z,9.73
2023-01-31T09:31:57.149Z,9.63
2023-01-31T09:34:25.641Z,9.07
2023-01-31T09:36:57.808Z,10.43
2023-01-31T09:39:26.241Z,9.50
2023-01-31T09:56:21.075Z,9.27
2023-01-31T09:58:57.841Z,10.07
2023-01-31T10:01:31.811Z,10.67
2023-01-31T10:04:10.003Z,12.20
2023-01-31T10:06:54.548Z,10.93
2023-01-31T10:09:30.781Z,9.37
2023-01-31T10:12:05.579Z,11.23
2023-01-31T10:14:37.904Z,11.90
2023-01-31T10:17:12.623Z,10.07
2023-01-31T10:19:48.705Z,9.93
2023-01-31T10:22:22.357Z,9.67
2023-01-31T10:24:55.904Z,10.57
2023-01-31T10:27:40.925Z,9.07
2023-01-31T10:30:17.542Z,8.10
2023-01-31T10:32:48.832Z,8.33
2023-01-31T10:35:22.401Z,7.77
2023-01-31T10:37:54.703Z,8.40
2023-01-31T10:40:27.819Z,7.77
2023-01-31T10:43:04.189Z,7.63
2023-01-31T10:45:34.290Z,7.97
2023-01-31T10:48:15.473Z,8.57
2023-01-31T10:50:57.492Z,8.10
2023-01-31T10:53:46.400Z,8.87
2023-01-31T10:56:22.337Z,9.30
2023-01-31T10:58:53.300Z,8.27
2023-01-31T11:01:21.775Z,9.73
2023-01-31T11:03:52.527Z,8.17
2023-01-31T11:06:21.639Z,9.27
2023-01-31T11:08:53.239Z,8.47
2023-01-31T11:11:23.550Z,9.47
2023-01-31T11:14:04.622Z,8.23
2023-01-31T11:16:36.395Z,10.47
2023-01-31T11:19:16.879Z,9.07
2023-01-31T11:21:51.240Z,9.20
2023-01-31T11:24:22.705Z,10.73
2023-01-31T11:26:54.360Z,10.77
2023-01-31T11:29:29.323Z,10.77
2023-01-31T11:31:59.473Z,11.03
2023-01-31T11:34:30.096Z,11.23
2023-01-31T11:37:06.110Z,11.00
2023-01-31T11:39:38.246Z,10.70
2023-01-31T11:42:08.141Z,10.57
2023-01-31T11:44:37.782Z,9.17
2023-01-31T11:47:12.628Z,10.23
2023-01-31T11:49:43.557Z,11.70
2023-01-31T11:52:18.156Z,11.07
2023-01-31T11:54:50.127Z,9.87
2023-01-31T11:57:22.999Z,10.73
2023-01-31T11:59:57.010Z,9.33
2023-01-31T12:02:32.265Z,8.77
2023-01-31T12:05:02.325Z,9.00
2023-01-31T12:07:39.144Z,8.70
2023-01-31T12:10:37.226Z,8.17
2023-01-31T12:13:19.023Z,8.03
2023-01-31T12:15:55.498Z,8.87
2023-01-31T12:18:48.106Z,10.33
2023-01-31T12:21:18.380Z,9.25
2023-01-31T12:24:00.319Z,8.83
2023-01-31T12:26:38.173Z,8.63
2023-01-31T12:29:29.799Z,8.70
2023-01-31T12:32:10.479Z,8.20
2023-01-31T12:35:02.444Z,10.13
2023-01-31T12:37:47.658Z,9.17
2023-01-31T12:40:39.076Z,7.43
2023-01-31T12:43:21.709Z,8.80
2023-01-31T12:46:09.721Z,8.70
2023-01-31T12:49:16.734Z,7.87
2023-01-31T12:51:59.665Z,7.70
2023-01-31T12:54:47.288Z,8.63
2023-01-31T12:57:32.445Z,8.27
2023-01-31T13:00:13.237Z,8.53
2023-01-31T13:02:51.946Z,8.73
2023-01-31T13:05:28.839Z,8.10
2023-01-31T13:08:04.648Z,7.40
2023-01-31T13:10:39.176Z,8.67
2023-01-31T13:13:16.612Z,8.07
2023-01-31T13:15:49.383Z,8.80
2023-01-31T13:18:19.726Z,7.23
2023-01-31T13:20:52.625Z,7.40
2023-01-31T13:23:31.509Z,8.30
2023-01-31T13:26:05.378Z,8.17
2023-01-31T13:28:39.100Z,8.43
2023-01-31T13:31:13.258Z,7.73
2023-01-31T13:33:47.543Z,6.87
2023-01-31T13:36:23.459Z,7.07
2023-01-31T13:38:53.718Z,7.07
2023-01-31T13:41:29.515Z,7.60
2023-01-31T13:43:58.727Z,8.20
2023-01-31T13:46:33.354Z,9.03
2023-01-31T13:49:05.258Z,8.27
2023-01-31T13:51:42.798Z,8.40
2023-01-31T13:54:19.468Z,8.77
2023-01-31T13:56:53.715Z,8.43
2023-01-31T13:59:26.617Z,11.77
2023-01-31T14:01:56.841Z,9.70
2023-01-31T14:04:39.879Z,9.17
2023-01-31T14:07:24.229Z,9.97
2023-01-31T14:10:30.629Z,8.80
2023-01-31T14:13:38.906Z,8.73
2023-01-31T14:16:38.732Z,9.10
2023-01-31T14:19:27.501Z,9.83
2023-01-31T14:21:58.120Z,11.27
2023-01-31T14:25:05.968Z,10.90
2023-01-31T14:28:03.040Z,11.40
2023-01-31T14:30:41.120Z,12.17
2023-01-31T14:33:19.792Z,11.33
2023-01-31T14:36:30.898Z,13.93
2023-01-31T14:39:24.675Z,12.63
2023-01-31T14:42:12.171Z,12.57
2023-01-31T14:44:53.550Z,13.80
2023-01-31T14:47:36.813Z,12.83
2023-01-31T14:50:43.995Z,12.60
2023-01-31T14:53:26.960Z,12.40
2023-01-31T14:56:10.411Z,15.95
2023-01-31T14:58:44.222Z,13.43
2023-01-31T15:01:15.585Z,13.03
2023-01-31T15:03:52.554Z,13.27
2023-01-31T15:06:26.092Z,14.13
2023-01-31T15:09:19.220Z,13.23
2023-01-31T15:11:48.083Z,13.70
2023-01-31T15:14:34.829Z,14.27
2023-01-31T15:17:17.470Z,15.75
2023-01-31T15:20:04.634Z,15.27
2023-01-31T15:22:38.820Z,14.43
2023-01-31T15:25:22.492Z,15.13
2023-01-31T15:27:51.424Z,15.10
2023-01-31T15:30:23.321Z,13.27
2023-01-31T15:32:57.814Z,13.33
2023-01-31T15:35:30.369Z,14.03
2023-01-31T15:38:03.072Z,12.43
2023-01-31T15:40:32.289Z,14.20
2023-01-31T15:43:18.937Z,13.40
2023-01-31T15:45:51.594Z,14.43
2023-01-31T15:48:22.835Z,14.37
2023-01-31T15:50:53.794Z,14.00
2023-01-31T15:53:25.293Z,14.00
2023-01-31T15:55:56.672Z,14.50
2023-01-31T15:58:27.505Z,16.20
2023-01-31T16:00:57.590Z,17.20
2023-01-31T16:03:28.444Z,14.90
2023-01-31T16:05:58.726Z,16.73
2023-01-31T16:08:31.319Z,16.37
2023-01-31T16:11:00.303Z,18.67
2023-01-31T16:13:29.226Z,16.77
2023-01-31T16:15:57.783Z,16.67
2023-01-31T16:18:27.731Z,17.20
2023-01-31T16:20:59.151Z,18.33
2023-01-31T16:23:31.393Z,19.27
2023-01-31T16:26:04.817Z,19.97
2023-01-31T16:28:39.244Z,20.00
2023-01-31T16:31:10.833Z,19.00
2023-01-31T16:33:41.233Z,22.67
2023-01-31T16:36:16.558Z,20.13
2023-01-31T16:38:57.482Z,19.83
2023-01-31T16:41:46.808Z,18.53
2023-01-31T16:44:18.820Z,18.70
2023-01-31T16:46:48.764Z,19.80
2023-01-31T16:49:23.820Z,19.20
2023-01-31T16:51:53.431Z,21.93
2023-01-31T16:54:24.263Z,21.70
2023-01-31T16:57:08.619Z,22.83
2023-01-31T16:59:50.621Z,20.40
2023-01-31T17:02:26.876Z,22.13
2023-01-31T17:04:58.834Z,23.57
2023-01-31T17:07:30.251Z,24.37
2023-01-31T17:10:00.548Z,23.63
2023-01-31T17:12:33.910Z,23.73
2023-01-31T17:15:04.002Z,24.70
2023-01-31T17:17:34.436Z,24.43
2023-01-31T17:20:04.404Z,25.13
2023-01-31T17:22:32.775Z,23.10
2023-01-31T17:25:01.040Z,23.63
2023-01-31T17:27:29.326Z,23.87
2023-01-31T17:29:57.773Z,22.30
2023-01-31T17:32:26.215Z,22.40
2023-01-31T17:34:54.526Z,23.20
2023-01-31T17:37:31.686Z,24.43
2023-01-31T17:40:01.263Z,22.67
2023-01-31T17:42:29.645Z,24.07
2023-01-31T17:44:57.957Z,28.25
2023-01-31T17:47:27.192Z,27.13
2023-01-31T17:49:57.414Z,25.00
2023-01-31T17:52:30.081Z,25.60
2023-01-31T17:54:58.507Z,23.00
2023-01-31T17:57:26.931Z,25.13
2023-01-31T17:59:55.200Z,22.47
2023-01-31T18:02:23.650Z,24.83
2023-01-31T18:04:52.106Z,25.30
2023-01-31T18:07:20.444Z,26.67
2023-01-31T18:09:51.007Z,24.47
2023-01-31T18:12:20.444Z,23.93
2023-01-31T18:14:48.735Z,25.87
2023-01-31T18:17:17.151Z,27.77
2023-01-31T18:19:45.447Z,24.47
2023-01-31T18:22:17.379Z,24.20
2023-01-31T18:24:46.228Z,26.00
2023-01-31T18:27:16.004Z,25.80
2023-01-31T18:29:44.348Z,30.02
2023-01-31T18:32:12.928Z,27.63
2023-01-31T18:34:41.230Z,26.90
2023-01-31T18:37:16.791Z,27.50
2023-01-31T18:39:45.111Z,25.33
2023-01-31T18:42:13.417Z,31.85
2023-01-31T18:44:44.307Z,29.57
2023-01-31T18:47:12.623Z,27.73
2023-01-31T18:49:40.989Z,28.33
2023-01-31T18:52:09.620Z,26.90
2023-01-31T18:54:38.301Z,28.20
2023-01-31T18:57:06.674Z,27.10
2023-01-31T18:59:35.421Z,27.60
2023-01-31T19:02:05.363Z,28.27
2023-01-31T19:04:33.612Z,28.25
2023-01-31T19:07:01.991Z,29.87
2023-01-31T19:09:31.404Z,30.23
2023-01-31T19:11:59.678Z,29.67
2023-01-31T19:14:27.944Z,31.63
2023-01-31T19:16:57.952Z,36.08
2023-01-31T19:19:27.923Z,31.70
2023-01-31T19:21:56.211Z,31.10
2023-01-31T19:24:24.636Z,31.00
2023-01-31T19:26:53.097Z,32.23
2023-01-31T19:29:21.377Z,38.25
2023-01-31T19:31:49.743Z,35.87
2023-01-31T19:34:18.078Z,33.27
2023-01-31T19:36:49.157Z,33.33
2023-01-31T19:39:17.506Z,32.67
2023-01-31T19:41:45.892Z,31.43
2023-01-31T19:44:14.205Z,30.97
2023-01-31T19:46:43.704Z,30.47
2023-01-31T19:49:12.149Z,31.80
2023-01-31T19:51:41.328Z,31.77
2023-01-31T19:54:15.407Z,29.90
2023-01-31T19:56:44.179Z,29.10
2023-01-31T19:59:12.692Z,26.53
2023-01-31T20:01:41.005Z,27.73
2023-01-31T20:04:09.247Z,27.67
2023-01-31T20:06:37.530Z,29.40
2023-01-31T20:09:07.534Z,27.37
2023-01-31T20:11:37.232Z,30.58
2023-01-31T20:14:06.856Z,26.43
2023-01-31T20:16:35.605Z,26.43
2023-01-31T20:19:06.651Z,25.20
2023-01-31T20:21:35.131Z,26.30
2023-01-31T20:24:03.503Z,25.37
2023-01-31T20:26:32.301Z,24.40
2023-01-31T20:29:02.055Z,24.83
2023-01-31T20:31:30.560Z,21.87
2023-01-31T20:33:58.816Z,24.37
2023-01-31T20:36:27.194Z,26.30
2023-01-31T20:38:55.511Z,24.67
2023-01-31T20:41:23.797Z,21.63
2023-01-31T20:43:53.227Z,24.03
2023-01-31T20:46:23.026Z,22.90
2023-01-31T20:48:51.373Z,26.40
2023-01-31T20:51:19.598Z,27.23
2023-01-31T20:53:48.045Z,26.20
2023-01-31T20:56:17.098Z,26.97
2023-01-31T20:58:45.614Z,30.20
2023-01-31T21:01:14.158Z,26.83
2023-01-31T21:03:43.936Z,25.83
2023-01-31T21:06:12.302Z,27.27
2023-01-31T21:08:41.332Z,26.00
2023-01-31T21:11:12.542Z,26.77
2023-01-31T21:13:43.393Z,27.03
2023-01-31T21:16:15.629Z,25.60
2023-01-31T21:18:45.854Z,26.50
2023-01-31T21:21:22.739Z,25.67
2023-01-31T21:23:52.136Z,25.67
2023-01-31T21:26:21.601Z,26.57
2023-01-31T21:28:50.615Z,25.97
2023-01-31T21:31:21.163Z,25.27
2023-01-31T21:33:52.094Z,24.97
2023-01-31T21:36:21.779Z,28.20
2023-01-31T21:38:50.901Z,25.47
2023-01-31T21:41:37.383Z,25.67
2023-01-31T21:44:07.149Z,23.33
2023-01-31T21:46:35.882Z,23.43
2023-01-31T21:49:05.690Z,21.60
2023-01-31T21:51:34.058Z,21.70
2023-01-31T21:54:02.448Z,23.07
2023-01-31T21:56:30.986Z,23.40
2023-01-31T21:58:59.621Z,28.63
2023-01-31T22:01:30.293Z,27.23
2023-01-31T22:03:59.213Z,26.87
2023-01-31T22:06:31.823Z,28.83
2023-01-31T22:09:01.872Z,28.27
2023-01-31T22:11:33.258Z,31.50
2023-01-31T22:14:02.900Z,32.23
2023-01-31T22:16:31.667Z,32.83
2023-01-31T22:19:00.850Z,32.90
2023-01-31T22:21:31.925Z,34.33
2023-01-31T22:24:02.760Z,35.03
2023-01-31T22:26:33.557Z,33.63
2023-01-31T22:29:04.019Z,34.53
2023-01-31T22:31:33.035Z,36.97
2023-01-31T22:34:02.045Z,36.60
2023-01-31T22:36:31.792Z,35.93
2023-01-31T22:39:00.175Z,34.33
2023-01-31T22:41:28.896Z,36.90
2023-01-31T22:43:57.674Z,34.97
2023-01-31T22:46:27.235Z,39.53
2023-01-31T22:48:56.590Z,32.70
2023-01-31T22:51:26.975Z,33.03
2023-01-31T22:54:00.296Z,33.90
2023-01-31T22:56:33.177Z,32.50
2023-01-31T22:59:03.382Z,37.00
2023-01-31T23:01:34.686Z,34.60
2023-01-31T23:04:04.428Z,34.33
2023-01-31T23:06:32.954Z,34.70
2023-01-31T23:09:03.042Z,37.80
2023-01-31T23:11:31.387Z,34.97
2023-01-31T23:14:00.231Z,34.50
2023-01-31T23:16:42.570Z,34.97
2023-01-31T23:19:11.343Z,34.43
2023-01-31T23:21:42.832Z,33.07
2023-01-31T23:24:14.706Z,32.90
2023-01-31T23:26:46.241Z,35.03
2023-01-31T23:29:14.829Z,39.35
2023-01-31T23:31:43.237Z,33.93
2023-01-31T23:34:11.674Z,34.77
2023-01-31T23:36:39.987Z,34.40
2023-01-31T23:39:08.314Z,32.40
2023-01-31T23:41:37.969Z,32.10
2023-01-31T23:44:06.459Z,31.33
2023-01-31T23:46:34.861Z,32.10
2023-01-31T23:49:03.204Z,30.63
2023-01-31T23:51:33.795Z,31.47
2023-01-31T23:54:02.168Z,31.70
2023-01-31T23:56:30.418Z,32.57
2023-01-31T23:59:00.519Z,32.13
